createdAt,value
2019-04-04T00:01:25.842Z,21.33
2019-04-04T00:03:53.865Z,21.33
2019-04-04T00:06:22.003Z,23.10
2019-04-04T00:08:50.130Z,19.67
2019-04-04T00:11:18.271Z,20.27
2019-04-04T00:13:46.325Z,21.10
2019-04-04T00:16:15.981Z,19.87
2019-04-04T00:18:44.128Z,20.53
2019-04-04T00:21:12.210Z,19.40
2019-04-04T00:23:40.315Z,20.40
2019-04-04T00:26:14.361Z,25.83
2019-04-04T00:28:44.058Z,22.13
2019-04-04T00:31:13.289Z,18.70
2019-04-04T00:33:41.356Z,25.40
2019-04-04T00:36:09.413Z,21.07
2019-04-04T00:38:37.968Z,20.07
2019-04-04T00:41:06.844Z,21.63
2019-04-04T00:43:34.864Z,23.27
2019-04-04T00:46:02.909Z,18.93
2019-04-04T00:48:32.247Z,20.43
2019-04-04T00:51:00.576Z,18.77
2019-04-04T00:53:28.607Z,21.73
2019-04-04T00:55:56.678Z,26.60
2019-04-04T00:58:24.732Z,19.07
2019-04-04T01:00:52.913Z,22.50
2019-04-04T01:03:22.506Z,20.97
2019-04-04T01:05:50.561Z,23.00
2019-04-04T01:08:18.612Z,17.80
2019-04-04T01:10:49.519Z,22.80
2019-04-04T01:13:16.332Z,22.13
2019-04-04T01:15:44.464Z,20.40
2019-04-04T01:18:12.533Z,20.33
2019-04-04T01:20:40.671Z,19.73
2019-04-04T01:23:08.755Z,23.33
2019-04-04T01:25:37.036Z,21.23
2019-04-04T01:28:07.798Z,19.70
2019-04-04T01:30:34.840Z,20.47
2019-04-04T01:33:03.786Z,22.90
2019-04-04T01:35:32.017Z,21.37
2019-04-04T01:38:03.497Z,25.20
2019-04-04T01:40:33.675Z,19.77
2019-04-04T01:43:01.215Z,23.37
2019-04-04T01:45:29.447Z,25.00
2019-04-04T01:47:57.395Z,22.13
2019-04-04T01:50:25.576Z,19.33
2019-04-04T01:52:53.591Z,23.73
2019-04-04T01:55:21.618Z,22.47
2019-04-04T01:57:49.684Z,19.50
2019-04-04T02:00:17.748Z,25.37
2019-04-04T02:02:45.823Z,23.13
2019-04-04T02:05:13.835Z,23.03
2019-04-04T02:07:41.860Z,27.53
2019-04-04T02:10:10.079Z,21.40
2019-04-04T02:12:39.167Z,19.53
2019-04-04T02:15:07.611Z,22.57
2019-04-04T02:17:35.621Z,22.30
2019-04-04T02:20:03.930Z,26.70
2019-04-04T02:22:31.914Z,18.13
2019-04-04T02:25:02.827Z,24.43
2019-04-04T02:27:29.615Z,23.40
2019-04-04T02:29:57.650Z,25.47
2019-04-04T02:32:28.205Z,28.43
2019-04-04T02:34:56.193Z,27.47
2019-04-04T02:37:24.182Z,22.03
2019-04-04T02:39:52.213Z,21.10
2019-04-04T02:42:22.280Z,20.20
2019-04-04T02:44:49.879Z,25.17
2019-04-04T02:47:18.341Z,23.07
2019-04-04T02:49:46.471Z,19.50
2019-04-04T02:52:14.692Z,23.23
2019-04-04T02:54:42.681Z,25.13
2019-04-04T02:57:10.703Z,24.33
2019-04-04T02:59:38.727Z,28.27
2019-04-04T03:02:06.775Z,27.93
2019-04-04T03:04:34.796Z,27.57
2019-04-04T03:07:02.810Z,24.13
2019-04-04T03:09:30.866Z,27.37
2019-04-04T03:11:58.859Z,25.30
2019-04-04T03:14:26.865Z,22.70
2019-04-04T03:16:56.884Z,26.53
2019-04-04T03:19:24.527Z,20.30
2019-04-04T03:21:54.942Z,23.87
2019-04-04T03:24:22.476Z,22.70
2019-04-04T03:26:52.609Z,22.40
2019-04-04T03:29:20.148Z,22.33
2019-04-04T03:31:48.180Z,24.27
2019-04-04T03:34:16.201Z,24.63
2019-04-04T03:36:44.268Z,26.10
2019-04-04T03:39:12.584Z,26.23
2019-04-04T03:41:40.616Z,22.57
2019-04-04T03:44:08.634Z,26.63
2019-04-04T03:46:38.725Z,26.57
2019-04-04T03:49:06.347Z,32.63
2019-04-04T03:51:36.940Z,27.40
2019-04-04T03:54:06.839Z,23.47
2019-04-04T03:56:39.266Z,27.90
2019-04-04T03:59:06.135Z,23.60
2019-04-04T04:01:34.210Z,26.10
2019-04-04T04:04:02.244Z,25.00
2019-04-04T04:06:30.295Z,27.87
2019-04-04T04:08:58.270Z,24.27
2019-04-04T04:11:26.308Z,24.03
2019-04-04T04:13:54.367Z,28.40
2019-04-04T04:16:22.387Z,30.80
2019-04-04T04:18:54.199Z,22.70
2019-04-04T04:21:20.107Z,26.70
2019-04-04T04:23:49.855Z,27.67
2019-04-04T04:26:17.731Z,26.30
2019-04-04T04:28:45.772Z,27.40
2019-04-04T04:31:15.344Z,29.03
2019-04-04T04:33:43.500Z,24.87
2019-04-04T04:36:15.260Z,27.40
2019-04-04T04:38:41.270Z,33.40
2019-04-04T04:41:09.309Z,26.43
2019-04-04T04:43:37.427Z,26.33
2019-04-04T04:46:05.435Z,22.73
2019-04-04T04:48:33.477Z,31.33
2019-04-04T04:51:01.477Z,36.70
2019-04-04T04:53:29.537Z,27.97
2019-04-04T04:56:00.569Z,27.37
2019-04-04T04:58:27.235Z,29.03
2019-04-04T05:00:55.220Z,26.80
2019-04-04T05:03:24.234Z,26.03
2019-04-04T05:05:53.265Z,28.33
2019-04-04T05:08:21.236Z,25.53
2019-04-04T05:10:49.295Z,22.97
2019-04-04T05:13:17.372Z,23.23
2019-04-04T05:15:45.510Z,28.07
2019-04-04T05:18:14.108Z,25.93
2019-04-04T05:20:43.263Z,21.10
2019-04-04T05:23:15.205Z,23.53
2019-04-04T05:25:52.033Z,26.80
2019-04-04T05:28:13.029Z,28.80
2019-04-04T05:30:45.067Z,25.83
2019-04-04T05:33:14.440Z,25.37
2019-04-04T05:35:42.416Z,25.20
2019-04-04T05:38:12.527Z,29.23
2019-04-04T05:40:40.274Z,36.43
2019-04-04T05:43:08.315Z,24.77
2019-04-04T05:45:36.305Z,23.53
2019-04-04T05:48:04.476Z,28.60
2019-04-04T05:50:32.498Z,22.67
2019-04-04T05:53:02.115Z,22.63
2019-04-04T05:55:30.215Z,24.03
2019-04-04T05:57:58.255Z,22.97
2019-04-04T06:00:27.372Z,20.30
2019-04-04T06:02:55.978Z,25.17
2019-04-04T06:05:27.211Z,22.20
2019-04-04T06:07:54.982Z,23.77
2019-04-04T06:10:23.024Z,25.97
2019-04-04T06:12:51.070Z,23.93
2019-04-04T06:15:19.076Z,25.57
2019-04-04T06:17:47.186Z,20.90
2019-04-04T06:20:15.662Z,24.37
2019-04-04T06:22:43.818Z,25.07
2019-04-04T06:25:11.949Z,17.43
2019-04-04T06:27:40.834Z,21.20
2019-04-04T06:30:08.957Z,22.33
2019-04-04T06:32:38.988Z,21.80
2019-04-04T06:35:07.346Z,19.63
2019-04-04T06:37:38.422Z,18.80
2019-04-04T06:40:05.481Z,23.53
2019-04-04T06:42:36.073Z,22.53
2019-04-04T06:45:03.294Z,26.57
2019-04-04T06:47:32.549Z,19.90
2019-04-04T06:50:00.634Z,21.37
2019-04-04T06:52:28.645Z,18.33
2019-04-04T06:54:57.384Z,28.50
2019-04-04T06:57:25.991Z,19.95
2019-04-04T06:59:54.144Z,23.80
2019-04-04T07:02:24.026Z,20.80
2019-04-04T07:04:52.268Z,15.93
2019-04-04T07:07:20.361Z,18.07
2019-04-04T07:09:50.278Z,18.10
2019-04-04T07:12:23.545Z,21.60
2019-04-04T07:14:49.500Z,17.57
2019-04-04T07:17:17.762Z,18.47
2019-04-04T07:19:46.250Z,16.87
2019-04-04T07:22:14.879Z,18.60
2019-04-04T07:24:42.930Z,23.23
2019-04-04T07:27:11.014Z,20.03
2019-04-04T07:29:39.085Z,21.00
2019-04-04T07:32:09.345Z,19.70
2019-04-04T07:34:37.255Z,18.33
2019-04-04T07:37:05.373Z,19.83
2019-04-04T07:39:33.465Z,25.97
2019-04-04T07:42:02.813Z,20.30
2019-04-04T07:44:31.385Z,20.27
2019-04-04T07:46:59.412Z,20.83
2019-04-04T07:49:27.460Z,17.03
2019-04-04T07:51:56.792Z,23.93
2019-04-04T07:54:24.956Z,18.70
2019-04-04T07:56:53.079Z,16.40
2019-04-04T07:59:21.127Z,20.70
2019-04-04T08:01:51.434Z,19.80
2019-04-04T08:04:19.017Z,17.53
2019-04-04T08:06:47.104Z,15.33
2019-04-04T08:09:15.246Z,18.73
2019-04-04T08:11:43.396Z,15.33
2019-04-04T08:14:11.560Z,14.27
2019-04-04T08:16:39.665Z,19.47
2019-04-04T08:19:07.837Z,17.00
2019-04-04T08:21:35.962Z,16.63
2019-04-04T08:24:04.085Z,17.47
2019-04-04T08:26:32.253Z,16.50
2019-04-04T08:29:00.333Z,20.00
2019-04-04T08:31:28.441Z,17.57
2019-04-04T08:33:56.577Z,17.10
2019-04-04T08:36:24.741Z,18.67
2019-04-04T08:38:52.961Z,19.30
2019-04-04T08:41:21.153Z,21.80
2019-04-04T08:43:49.356Z,20.50
2019-04-04T08:46:19.831Z,19.27
2019-04-04T08:48:47.375Z,18.50
2019-04-04T08:51:15.628Z,17.00
2019-04-04T08:53:43.757Z,17.33
2019-04-04T08:56:11.899Z,20.53
2019-04-04T08:58:40.188Z,22.63
2019-04-04T09:01:08.335Z,24.63
2019-04-04T09:03:36.519Z,21.10
2019-04-04T09:06:06.064Z,19.07
2019-04-04T09:08:34.184Z,18.63
2019-04-04T09:11:02.543Z,19.43
2019-04-04T09:13:30.626Z,17.57
2019-04-04T09:15:58.814Z,19.17
2019-04-04T09:18:26.839Z,19.80
2019-04-04T09:20:55.356Z,17.63
2019-04-04T09:23:23.519Z,20.30
2019-04-04T09:25:51.684Z,21.40
2019-04-04T09:28:19.827Z,24.20
2019-04-04T09:30:48.584Z,18.73
2019-04-04T09:33:16.682Z,21.57
2019-04-04T09:35:44.953Z,20.97
2019-04-04T09:38:12.972Z,22.83
2019-04-04T09:40:41.076Z,20.53
2019-04-04T09:43:09.150Z,20.67
2019-04-04T09:45:37.251Z,17.33
2019-04-04T09:48:06.344Z,21.37
2019-04-04T09:50:34.514Z,21.33
2019-04-04T09:53:02.624Z,20.17
2019-04-04T09:55:30.719Z,21.57
2019-04-04T09:57:58.857Z,21.23
2019-04-04T10:00:29.240Z,22.83
2019-04-04T10:02:59.492Z,21.70
2019-04-04T10:05:27.640Z,23.20
2019-04-04T10:07:55.752Z,20.60
2019-04-04T10:10:23.902Z,25.53
2019-04-04T10:12:51.930Z,19.67
2019-04-04T10:15:20.008Z,17.03
2019-04-04T10:17:49.458Z,20.07
2019-04-04T10:20:17.660Z,23.73
2019-04-04T10:22:45.705Z,21.25
2019-04-04T10:25:13.760Z,17.27
2019-04-04T10:27:41.814Z,17.10
2019-04-04T10:30:09.915Z,15.60
2019-04-04T10:32:38.065Z,14.00
2019-04-04T10:35:06.680Z,16.80
2019-04-04T10:37:34.740Z,26.43
2019-04-04T10:40:02.764Z,13.73
2019-04-04T10:42:30.760Z,18.15
2019-04-04T10:44:58.812Z,17.10
2019-04-04T10:47:27.366Z,16.85
2019-04-04T10:49:58.304Z,13.93
2019-04-04T10:52:25.087Z,14.63
2019-04-04T10:54:53.106Z,15.63
2019-04-04T10:57:21.190Z,15.43
2019-04-04T10:59:49.246Z,16.47
2019-04-04T11:02:17.336Z,14.43
2019-04-04T11:04:45.362Z,14.23
2019-04-04T11:07:13.456Z,14.67
2019-04-04T11:09:42.422Z,14.27
2019-04-04T11:12:10.578Z,14.97
2019-04-04T11:14:38.616Z,14.65
2019-04-04T11:17:06.652Z,14.57
2019-04-04T11:19:34.710Z,14.23
2019-04-04T11:22:02.814Z,13.10
2019-04-04T11:24:31.392Z,12.05
2019-04-04T11:26:59.500Z,14.03
2019-04-04T11:29:27.663Z,14.53
2019-04-04T11:31:58.755Z,14.17
2019-04-04T11:34:34.674Z,10.67
2019-04-04T11:37:01.485Z,12.30
2019-04-04T11:39:29.560Z,14.37
2019-04-04T11:41:57.604Z,13.50
2019-04-04T11:44:26.132Z,14.13
2019-04-04T11:46:54.211Z,11.57
2019-04-04T11:49:22.388Z,12.37
2019-04-04T11:51:50.468Z,13.43
2019-04-04T11:54:18.539Z,12.33
2019-04-04T11:56:47.002Z,10.87
2019-04-04T11:59:15.084Z,10.47
2019-04-04T12:01:43.596Z,13.17
2019-04-04T12:04:11.761Z,10.63
2019-04-04T12:06:39.836Z,15.85
2019-04-04T12:09:08.439Z,9.77
2019-04-04T12:11:36.494Z,11.87
2019-04-04T12:14:04.605Z,11.15
2019-04-04T12:16:32.973Z,11.15
2019-04-04T12:19:01.076Z,10.55
2019-04-04T12:21:29.097Z,10.67
2019-04-04T12:23:57.129Z,11.03
2019-04-04T12:26:26.929Z,9.70
2019-04-04T12:28:55.118Z,13.35
2019-04-04T12:31:23.170Z,11.00
2019-04-04T12:33:51.183Z,12.73
2019-04-04T12:36:24.384Z,10.00
2019-04-04T12:38:48.946Z,11.28
2019-04-04T12:41:17.014Z,10.38
2019-04-04T12:43:45.103Z,9.38
2019-04-04T12:46:13.214Z,9.80
2019-04-04T12:48:41.280Z,9.17
2019-04-04T12:51:09.388Z,12.37
2019-04-04T12:53:37.405Z,8.85
2019-04-04T12:56:05.477Z,9.55
2019-04-04T12:58:33.492Z,9.53
2019-04-04T13:01:01.621Z,10.50
2019-04-04T13:03:29.600Z,8.77
2019-04-04T13:05:57.678Z,7.80
2019-04-04T13:08:25.736Z,10.80
2019-04-04T13:10:53.853Z,10.63
2019-04-04T13:13:21.886Z,8.03
2019-04-04T13:15:50.001Z,10.43
2019-04-04T13:18:18.086Z,9.90
2019-04-04T13:20:46.152Z,10.38
2019-04-04T13:23:14.267Z,11.57
2019-04-04T13:25:43.577Z,8.98
2019-04-04T13:28:11.615Z,10.27
2019-04-04T13:30:39.724Z,9.93
2019-04-04T13:33:07.847Z,9.63
2019-04-04T13:35:37.858Z,11.15
2019-04-04T13:38:05.875Z,9.28
2019-04-04T13:40:44.794Z,7.73
2019-04-04T13:43:03.664Z,10.60
2019-04-04T13:45:31.814Z,7.93
2019-04-04T13:47:59.949Z,9.47
2019-04-04T13:50:29.601Z,9.53
2019-04-04T13:52:58.655Z,8.23
2019-04-04T13:55:27.291Z,10.07
2019-04-04T13:57:57.156Z,7.77
2019-04-04T14:00:27.755Z,8.67
2019-04-04T14:02:55.908Z,7.40
2019-04-04T14:05:24.905Z,8.73
2019-04-04T14:08:50.696Z,9.03
2019-04-04T14:10:58.043Z,9.18
2019-04-04T14:13:21.645Z,9.17
2019-04-04T14:15:49.995Z,9.97
2019-04-04T14:18:24.492Z,7.55
2019-04-04T14:21:02.955Z,9.35
2019-04-04T14:23:23.364Z,8.53
2019-04-04T14:25:51.564Z,7.37
2019-04-04T14:28:19.646Z,11.60
2019-04-04T14:30:47.710Z,8.57
2019-04-04T14:33:15.873Z,9.03
2019-04-04T14:35:43.940Z,7.83
2019-04-04T14:38:13.135Z,10.50
2019-04-04T14:40:41.209Z,8.63
2019-04-04T14:43:09.279Z,7.10
2019-04-04T14:45:37.400Z,8.53
2019-04-04T14:48:05.612Z,6.70
2019-04-04T14:50:33.668Z,9.03
2019-04-04T14:53:04.146Z,6.50
2019-04-04T14:55:32.159Z,7.58
2019-04-04T14:58:00.248Z,8.85
2019-04-04T15:00:28.350Z,10.38
2019-04-04T15:02:56.412Z,7.97
2019-04-04T15:05:24.537Z,8.13
2019-04-04T15:07:52.592Z,7.87
2019-04-04T15:10:20.718Z,7.60
2019-04-04T15:12:48.800Z,7.53
2019-04-04T15:15:16.899Z,8.48
2019-04-04T15:17:44.928Z,8.33
2019-04-04T15:20:12.948Z,8.83
2019-04-04T15:22:40.991Z,7.03
2019-04-04T15:25:09.056Z,6.73
2019-04-04T15:27:37.625Z,7.93
2019-04-04T15:30:05.640Z,7.83
2019-04-04T15:32:33.666Z,7.20
2019-04-04T15:35:01.706Z,7.22
2019-04-04T15:37:29.802Z,7.55
2019-04-04T15:39:57.864Z,8.17
2019-04-04T15:42:25.883Z,7.23
2019-04-04T15:44:54.069Z,9.83
2019-04-04T15:47:22.092Z,6.73
2019-04-04T15:49:50.136Z,12.60
2019-04-04T15:52:18.213Z,9.10
2019-04-04T15:54:46.268Z,7.97
2019-04-04T15:57:14.372Z,10.87
2019-04-04T15:59:42.440Z,10.03
2019-04-04T16:02:10.473Z,7.87
2019-04-04T16:04:38.480Z,9.28
2019-04-04T16:07:06.672Z,8.07
2019-04-04T16:09:34.735Z,16.60
2019-04-04T16:12:02.868Z,9.13
2019-04-04T16:14:30.863Z,8.27
2019-04-04T16:16:59.438Z,7.05
2019-04-04T16:19:27.478Z,7.03
2019-04-04T16:21:55.464Z,6.20
2019-04-04T16:24:23.553Z,9.80
2019-04-04T16:26:51.710Z,7.30
2019-04-04T16:29:19.827Z,8.07
2019-04-04T16:31:47.945Z,7.87
2019-04-04T16:34:15.978Z,7.83
2019-04-04T16:36:44.806Z,7.40
2019-04-04T16:39:12.847Z,7.70
2019-04-04T16:41:40.838Z,6.60
2019-04-04T16:44:08.897Z,11.80
2019-04-04T16:46:36.865Z,8.40
2019-04-04T16:49:04.919Z,7.70
2019-04-04T16:51:32.891Z,6.10
2019-04-04T16:54:00.903Z,6.53
2019-04-04T16:56:28.907Z,9.27
2019-04-04T16:58:56.908Z,9.37
2019-04-04T17:01:24.895Z,10.67
2019-04-04T17:04:01.449Z,8.57
2019-04-04T17:06:22.554Z,7.67
2019-04-04T17:08:50.555Z,7.07
2019-04-04T17:11:19.414Z,7.20
2019-04-04T17:13:47.444Z,8.23
2019-04-04T17:16:15.467Z,7.37
2019-04-04T17:18:43.469Z,15.93
2019-04-04T17:21:11.787Z,7.60
2019-04-04T17:23:39.750Z,7.90
2019-04-04T17:26:07.846Z,11.00
2019-04-04T17:28:36.363Z,6.97
2019-04-04T17:31:06.959Z,8.03
2019-04-04T17:33:34.516Z,7.90
2019-04-04T17:36:02.618Z,8.10
2019-04-04T17:38:30.672Z,12.40
2019-04-04T17:40:58.715Z,6.83
2019-04-04T17:43:26.725Z,9.70
2019-04-04T17:45:55.482Z,7.87
2019-04-04T17:48:23.491Z,10.37
2019-04-04T17:50:51.648Z,11.30
2019-04-04T17:53:19.627Z,9.83
2019-04-04T17:55:48.497Z,11.23
2019-04-04T17:58:18.402Z,8.10
2019-04-04T18:00:46.420Z,7.93
2019-04-04T18:03:14.495Z,11.63
2019-04-04T18:05:42.477Z,10.87
2019-04-04T18:08:10.490Z,11.63
2019-04-04T18:10:38.454Z,10.13
2019-04-04T18:13:06.486Z,11.07
2019-04-04T18:15:34.460Z,9.80
2019-04-04T18:18:02.520Z,10.83
2019-04-04T18:20:42.077Z,14.77
2019-04-04T18:23:10.103Z,8.13
2019-04-04T18:25:38.196Z,15.20
2019-04-04T18:28:06.172Z,10.53
2019-04-04T18:30:34.212Z,12.13
2019-04-04T18:33:02.396Z,11.73
2019-04-04T18:35:30.392Z,11.77
2019-04-04T18:37:58.630Z,10.80
2019-04-04T18:40:26.651Z,10.17
2019-04-04T18:42:54.632Z,11.70
2019-04-04T18:45:22.622Z,11.43
2019-04-04T18:47:50.637Z,12.03
2019-04-04T18:50:18.674Z,13.60
2019-04-04T18:52:46.636Z,15.43
2019-04-04T18:55:20.164Z,21.23
2019-04-04T18:57:44.305Z,19.27
2019-04-04T19:00:12.337Z,71.57
2019-04-04T19:02:40.359Z,23.47
2019-04-04T19:05:08.412Z,14.93
2019-04-04T19:07:39.638Z,46.87
2019-04-04T19:10:06.123Z,37.23
2019-04-04T19:12:34.207Z,32.07
2019-04-04T19:15:02.259Z,30.23
2019-04-04T19:17:30.489Z,42.40
2019-04-04T19:19:58.506Z,18.40
2019-04-04T19:22:26.580Z,19.83
2019-04-04T19:24:54.671Z,10.63
2019-04-04T19:27:22.910Z,11.50
2019-04-04T19:29:50.926Z,9.37
2019-04-04T19:32:19.944Z,12.27
2019-04-04T19:34:49.048Z,8.73
2019-04-04T19:37:18.485Z,10.60
2019-04-04T19:39:47.421Z,10.63
2019-04-04T19:42:15.921Z,13.07
2019-04-04T19:44:53.085Z,9.40
2019-04-04T19:47:13.574Z,13.00
2019-04-04T19:49:41.678Z,13.90
2019-04-04T19:52:10.081Z,11.67
2019-04-04T19:54:38.202Z,12.63
2019-04-04T19:57:06.805Z,11.60
2019-04-04T19:59:37.455Z,16.07
2019-04-04T20:02:05.990Z,9.40
2019-04-04T20:04:34.886Z,10.28
2019-04-04T20:07:09.132Z,10.10
2019-04-04T20:09:37.425Z,9.77
2019-04-04T20:12:06.171Z,13.03
2019-04-04T20:14:35.213Z,9.53
2019-04-04T20:17:03.290Z,10.50
2019-04-04T20:19:32.708Z,10.60
2019-04-04T20:22:00.800Z,9.40
2019-04-04T20:24:29.333Z,13.60
2019-04-04T20:26:57.376Z,14.27
2019-04-04T20:29:25.636Z,11.97
2019-04-04T20:31:53.851Z,13.00
2019-04-04T20:34:21.918Z,10.13
2019-04-04T20:36:49.940Z,12.37
2019-04-04T20:39:17.975Z,15.13
2019-04-04T20:41:46.099Z,10.47
2019-04-04T20:44:14.170Z,13.97
2019-04-04T20:46:42.605Z,9.80
2019-04-04T20:49:10.764Z,10.32
2019-04-04T20:51:38.898Z,9.23
2019-04-04T20:54:06.899Z,9.50
2019-04-04T20:56:34.929Z,10.20
2019-04-04T20:59:03.004Z,14.23
2019-04-04T21:01:31.033Z,12.50
2019-04-04T21:03:59.029Z,9.40
2019-04-04T21:06:27.016Z,12.33
2019-04-04T21:08:55.446Z,13.60
2019-04-04T21:11:23.442Z,11.67
2019-04-04T21:13:56.490Z,10.60
2019-04-04T21:16:22.678Z,11.00
2019-04-04T21:18:51.606Z,12.63
2019-04-04T21:21:19.597Z,12.53
2019-04-04T21:23:47.633Z,13.43
2019-04-04T21:26:16.256Z,10.83
2019-04-04T21:28:44.275Z,14.33
2019-04-04T21:31:12.339Z,13.23
2019-04-04T21:33:40.432Z,12.30
2019-04-04T21:36:08.447Z,13.43
2019-04-04T21:38:36.475Z,11.03
2019-04-04T21:41:04.489Z,12.47
2019-04-04T21:43:32.513Z,12.10
2019-04-04T21:46:00.505Z,11.70
2019-04-04T21:48:30.812Z,11.50
2019-04-04T21:50:58.806Z,14.33
2019-04-04T21:53:26.888Z,11.53
2019-04-04T21:55:54.848Z,10.63
2019-04-04T21:58:24.128Z,12.60
2019-04-04T22:00:52.536Z,12.93
2019-04-04T22:03:21.575Z,11.90
2019-04-04T22:05:49.598Z,14.67
2019-04-04T22:08:17.664Z,12.30
2019-04-04T22:10:45.711Z,13.57
2019-04-04T22:13:13.771Z,13.67
2019-04-04T22:15:41.822Z,13.23
2019-04-04T22:18:09.850Z,14.53
2019-04-04T22:20:37.941Z,12.50
2019-04-04T22:23:05.998Z,10.83
2019-04-04T22:25:34.969Z,17.93
2019-04-04T22:28:02.997Z,13.37
2019-04-04T22:30:31.112Z,10.87
2019-04-04T22:33:01.667Z,11.03
2019-04-04T22:35:28.884Z,15.03
2019-04-04T22:37:56.939Z,11.27
2019-04-04T22:40:25.021Z,12.13
2019-04-04T22:42:53.075Z,13.63
2019-04-04T22:45:21.164Z,16.03
2019-04-04T22:47:50.061Z,12.70
2019-04-04T22:50:18.140Z,12.97
2019-04-04T22:52:46.185Z,14.97
2019-04-04T22:55:14.264Z,11.77
2019-04-04T22:57:42.388Z,14.80
2019-04-04T23:00:10.681Z,12.73
2019-04-04T23:02:38.937Z,13.97
2019-04-04T23:05:07.506Z,14.97
2019-04-04T23:07:35.576Z,14.73
2019-04-04T23:10:03.709Z,15.97
2019-04-04T23:12:31.767Z,13.27
2019-04-04T23:14:59.789Z,16.80
2019-04-04T23:17:27.909Z,15.17
2019-04-04T23:19:56.063Z,15.07
2019-04-04T23:22:24.128Z,15.33
2019-04-04T23:24:52.139Z,12.37
2019-04-04T23:27:21.235Z,12.90
2019-04-04T23:29:49.254Z,14.97
2019-04-04T23:32:17.325Z,12.67
2019-04-04T23:34:45.485Z,14.43
2019-04-04T23:37:13.578Z,15.17
2019-04-04T23:39:41.670Z,16.27
2019-04-04T23:42:10.102Z,13.77
2019-04-04T23:44:38.156Z,13.97
2019-04-04T23:47:06.215Z,12.87
2019-04-04T23:49:34.380Z,13.70
2019-04-04T23:52:02.422Z,16.37
2019-04-04T23:54:30.440Z,14.33
2019-04-04T23:56:58.565Z,13.97
2019-04-04T23:59:26.669Z,14.97
